Time;durP1;ratioP1;P1;durP2;ratioP2;P2;SDS_P1;SDS_P2;PMS_P1;PMS_P2;Temp;Humidity;BMP_temperature;BMP_pressure;BME280_temperature;BME280_humidity;BME280_pressure;Samples;Min_cycle;Max_cycle;Signal;HPM_P1;HPM_P2
2024/01/10 00:02:20;;;;;;;7.30;2.78;;;-1.20;94.30;;;;;;5085269;28;20397;-76
2024/01/10 00:04:45;;;;;;;5.65;2.40;;;-1.20;94.40;;;;;;5084883;28;20094;-77
2024/01/10 00:07:11;;;;;;;4.82;2.33;;;-1.20;94.50;;;;;;5085665;28;20469;-76
2024/01/10 00:09:37;;;;;;;4.25;2.15;;;-1.20;94.50;;;;;;5081657;28;20025;-76
2024/01/10 00:12:02;;;;;;;4.45;2.20;;;-1.20;94.50;;;;;;5084868;28;20020;-76
2024/01/10 00:14:28;;;;;;;8.43;2.83;;;-1.30;94.60;;;;;;5084252;28;20028;-76
2024/01/10 00:16:54;;;;;;;5.13;2.70;;;-1.30;94.60;;;;;;5085153;28;20012;-77
2024/01/10 00:19:19;;;;;;;4.95;2.35;;;-1.30;94.70;;;;;;5084557;28;20440;-76
2024/01/10 00:21:45;;;;;;;10.07;2.45;;;-1.30;94.80;;;;;;5084791;28;20073;-76
2024/01/10 00:24:11;;;;;;;5.20;2.20;;;-1.30;94.80;;;;;;5084251;28;20020;-76
2024/01/10 00:26:36;;;;;;;10.55;2.85;;;-1.30;94.90;;;;;;5084826;28;20028;-76
2024/01/10 00:29:02;;;;;;;7.57;2.20;;;-1.30;94.90;;;;;;5083857;28;20024;-76
2024/01/10 00:31:28;;;;;;;7.25;2.70;;;-1.40;94.90;;;;;;5066490;28;20027;-76
2024/01/10 00:33:53;;;;;;;5.43;2.55;;;-1.40;94.90;;;;;;5081686;28;20020;-76
2024/01/10 00:36:19;;;;;;;5.90;2.63;;;-1.40;94.90;;;;;;5084874;28;20052;-76
2024/01/10 00:38:44;;;;;;;6.82;2.78;;;-1.40;95.10;;;;;;5084243;28;20012;-76
2024/01/10 00:41:12;;;;;;;4.90;2.28;;;-1.40;95.10;;;;;;5066275;28;20489;-76
2024/01/10 00:43:38;;;;;;;4.40;2.40;;;-1.50;95.10;;;;;;5065861;28;20042;-76
2024/01/10 00:46:03;;;;;;;5.70;2.50;;;-1.50;95.20;;;;;;5065803;28;20020;-76
2024/01/10 00:48:29;;;;;;;4.75;2.60;;;-1.50;95.20;;;;;;5083691;28;20119;-76
2024/01/10 00:50:54;;;;;;;6.82;2.80;;;-1.50;95.30;;;;;;5084003;28;20590;-76
2024/01/10 00:53:20;;;;;;;4.53;2.30;;;-1.50;95.40;;;;;;5084014;28;20024;-77
2024/01/10 00:55:47;;;;;;;5.10;2.25;;;-1.50;95.40;;;;;;5065734;28;20598;-76
2024/01/10 00:58:13;;;;;;;6.22;3.15;;;-1.50;95.50;;;;;;5083612;28;20040;-76
2024/01/10 01:00:38;;;;;;;5.60;2.55;;;-1.50;95.50;;;;;;5066085;28;20040;-77
2024/01/10 01:03:04;;;;;;;5.20;2.20;;;-1.50;95.60;;;;;;5065354;28;20028;-77
2024/01/10 01:05:30;;;;;;;5.97;2.72;;;-1.50;95.60;;;;;;5084496;28;20050;-77
2024/01/10 01:07:56;;;;;;;5.30;2.58;;;-1.60;95.70;;;;;;5065262;28;20019;-77
2024/01/10 01:10:21;;;;;;;5.70;2.30;;;-1.60;95.80;;;;;;5066329;28;20058;-77
2024/01/10 01:12:47;;;;;;;7.63;3.45;;;-1.60;95.80;;;;;;5083804;28;20020;-77
2024/01/10 01:15:13;;;;;;;5.10;2.50;;;-1.60;95.80;;;;;;5084343;28;20546;-77
2024/01/10 01:17:39;;;;;;;5.88;2.70;;;-1.60;95.90;;;;;;5083760;28;20492;-77
2024/01/10 01:20:05;;;;;;;5.43;2.67;;;-1.60;96.00;;;;;;5066269;28;20717;-77
2024/01/10 01:22:31;;;;;;;5.13;2.50;;;-1.60;96.10;;;;;;5087981;28;20031;-77
2024/01/10 01:24:57;;;;;;;9.40;3.22;;;-1.60;96.10;;;;;;5069696;28;20016;-77
2024/01/10 01:27:23;;;;;;;5.53;2.90;;;-1.60;96.10;;;;;;5088533;28;20455;-76
2024/01/10 01:29:49;;;;;;;5.55;2.67;;;-1.60;96.20;;;;;;5087723;28;20016;-77
2024/01/10 01:32:14;;;;;;;4.82;2.40;;;-1.60;96.20;;;;;;5088280;28;20073;-76
2024/01/10 01:34:40;;;;;;;5.38;2.80;;;-1.60;96.20;;;;;;5069821;28;20023;-77
2024/01/10 01:37:06;;;;;;;5.18;2.40;;;-1.60;96.30;;;;;;5071149;28;20051;-76
2024/01/10 01:39:31;;;;;;;7.03;2.92;;;-1.60;96.30;;;;;;5088868;28;20024;-77
2024/01/10 01:41:58;;;;;;;4.47;2.42;;;-1.60;96.30;;;;;;5070741;28;20020;-77
2024/01/10 01:44:23;;;;;;;9.15;2.72;;;-1.70;96.40;;;;;;5089056;28;20020;-78
2024/01/10 01:46:50;;;;;;;5.95;2.80;;;-1.70;96.40;;;;;;5088927;28;20385;-77
2024/01/10 01:49:16;;;;;;;5.20;2.65;;;-1.60;96.40;;;;;;5088805;28;20095;-76
2024/01/10 01:51:42;;;;;;;5.57;2.47;;;-1.70;96.50;;;;;;5071215;28;20103;-76
2024/01/10 01:54:09;;;;;;;6.18;2.95;;;-1.70;96.50;;;;;;5088573;28;20393;-77
2024/01/10 01:56:36;;;;;;;4.15;2.03;;;-1.70;96.50;;;;;;5089087;28;20008;-77
2024/01/10 01:59:04;;;;;;;5.13;2.72;;;-1.70;96.50;;;;;;5087611;28;20028;-77
2024/01/10 02:01:30;;;;;;;5.78;2.60;;;-1.70;96.60;;;;;;5070502;28;20103;-77
2024/01/10 02:03:56;;;;;;;5.40;2.80;;;-1.70;96.60;;;;;;5088166;28;20123;-77
2024/01/10 02:06:21;;;;;;;5.53;2.72;;;-1.70;96.60;;;;;;5088920;28;20028;-77
2024/01/10 02:08:47;;;;;;;7.13;2.90;;;-1.70;96.60;;;;;;5087695;28;20020;-77
2024/01/10 02:11:13;;;;;;;8.02;3.00;;;-1.70;96.70;;;;;;5070475;28;20580;-77
2024/01/10 02:13:39;;;;;;;5.47;2.65;;;-1.70;96.70;;;;;;5069719;28;20397;-77
2024/01/10 02:16:05;;;;;;;6.40;3.05;;;-1.70;96.70;;;;;;5070297;28;20069;-77
2024/01/10 02:18:31;;;;;;;7.55;2.50;;;-1.70;96.70;;;;;;5088001;28;20020;-77
2024/01/10 02:20:57;;;;;;;6.75;2.95;;;-1.70;96.70;;;;;;5074028;28;20046;-77
2024/01/10 02:23:23;;;;;;;3.95;2.00;;;-1.80;96.60;;;;;;5088046;28;20032;-77
2024/01/10 02:25:49;;;;;;;7.13;2.80;;;-1.80;96.70;;;;;;5088105;28;20485;-77
2024/01/10 02:28:15;;;;;;;5.32;2.67;;;-1.80;96.70;;;;;;5069556;28;20030;-76
2024/01/10 02:30:40;;;;;;;6.47;2.80;;;-1.80;96.70;;;;;;5088091;28;20116;-77
2024/01/10 02:33:06;;;;;;;6.80;2.58;;;-1.80;96.70;;;;;;5086882;28;20028;-77
2024/01/10 02:35:32;;;;;;;5.72;2.47;;;-1.80;96.70;;;;;;5087872;28;20085;-77
2024/01/10 02:37:58;;;;;;;6.82;2.65;;;-1.80;96.70;;;;;;5088113;28;20024;-77
2024/01/10 02:40:24;;;;;;;6.60;2.55;;;-1.80;96.80;;;;;;5088467;28;20107;-77
2024/01/10 02:42:51;;;;;;;5.78;2.47;;;-1.80;96.80;;;;;;5087833;28;20024;-77
2024/01/10 02:45:17;;;;;;;6.50;2.65;;;-1.80;96.80;;;;;;5087618;28;20450;-76
2024/01/10 02:47:43;;;;;;;5.63;2.80;;;-1.80;96.80;;;;;;5088103;28;20032;-76
2024/01/10 02:50:09;;;;;;;9.18;2.78;;;-1.80;96.90;;;;;;5087438;28;20024;-76
2024/01/10 02:52:34;;;;;;;7.15;2.70;;;-1.80;96.90;;;;;;5087701;28;20523;-76
2024/01/10 02:55:00;;;;;;;5.25;2.88;;;-1.80;96.90;;;;;;5087060;28;20016;-76
2024/01/10 02:57:26;;;;;;;5.85;2.40;;;-1.90;96.90;;;;;;5087670;28;20123;-76
2024/01/10 02:59:51;;;;;;;5.97;2.70;;;-1.90;97.00;;;;;;5087105;28;20056;-76
2024/01/10 03:02:17;;;;;;;5.22;2.55;;;-1.90;97.00;;;;;;5087416;28;20050;-77
2024/01/10 03:04:44;;;;;;;6.13;2.70;;;-1.90;97.10;;;;;;5087037;28;20402;-77
2024/01/10 03:07:10;;;;;;;5.68;2.75;;;-1.90;97.00;;;;;;5087794;28;20031;-76
2024/01/10 03:09:36;;;;;;;5.22;2.25;;;-1.90;97.10;;;;;;5087030;28;20473;-77
2024/01/10 03:12:01;;;;;;;5.72;2.60;;;-1.90;97.10;;;;;;5068943;28;20153;-77
2024/01/10 03:14:27;;;;;;;6.90;3.15;;;-1.90;97.40;;;;;;5086891;28;20039;-77
2024/01/10 03:16:53;;;;;;;7.85;3.03;;;-1.90;97.10;;;;;;5086993;28;20489;-76
2024/01/10 03:19:19;;;;;;;6.88;3.15;;;-2.00;97.10;;;;;;5086889;28;20020;-77
2024/01/10 03:21:44;;;;;;;6.03;2.80;;;-2.00;97.20;;;;;;5069086;28;20468;-78
2024/01/10 03:24:12;;;;;;;6.97;3.00;;;-2.00;97.20;;;;;;5086889;28;20020;-77
2024/01/10 03:26:38;;;;;;;6.10;2.85;;;-2.00;97.20;;;;;;5087308;28;20028;-77
2024/01/10 03:29:03;;;;;;;5.95;2.97;;;-2.00;97.30;;;;;;5068210;28;20036;-77
2024/01/10 03:31:32;;;;;;;6.63;2.80;;;-2.00;97.30;;;;;;5087317;28;20370;-77
2024/01/10 03:33:58;;;;;;;7.22;2.65;;;-2.00;97.30;;;;;;5086648;28;20028;-78
2024/01/10 03:36:24;;;;;;;6.82;3.25;;;-2.00;97.30;;;;;;5087420;28;20536;-77
2024/01/10 03:38:50;;;;;;;7.10;2.83;;;-2.00;97.40;;;;;;5086514;28;20059;-77
2024/01/10 03:41:17;;;;;;;7.20;2.70;;;-2.00;97.50;;;;;;5087068;28;20051;-78
2024/01/10 03:43:43;;;;;;;7.15;3.10;;;-2.00;97.50;;;;;;5085891;28;20408;-78
2024/01/10 03:46:09;;;;;;;7.32;2.83;;;-2.10;97.50;;;;;;5086761;28;20126;-78
2024/01/10 03:48:36;;;;;;;7.45;3.00;;;-2.10;97.50;;;;;;5067979;28;20024;-77
2024/01/10 03:51:02;;;;;;;6.70;2.90;;;-2.10;97.50;;;;;;5068182;28;20039;-78
2024/01/10 03:53:29;;;;;;;8.55;3.15;;;-2.10;97.50;;;;;;5086097;28;20060;-78
2024/01/10 03:55:54;;;;;;;6.70;3.28;;;-2.10;97.60;;;;;;5086464;28;20070;-77
2024/01/10 03:58:20;;;;;;;6.30;2.65;;;-2.10;97.60;;;;;;5087663;28;20520;-78
2024/01/10 04:00:46;;;;;;;5.55;2.60;;;-2.10;97.60;;;;;;5069633;28;20058;-77
2024/01/10 04:03:11;;;;;;;6.35;3.13;;;-2.10;97.70;;;;;;5087654;28;20032;-78
2024/01/10 04:05:37;;;;;;;9.75;3.10;;;-2.10;97.70;;;;;;5088238;28;20077;-78
2024/01/10 04:08:03;;;;;;;7.60;3.28;;;-2.10;97.70;;;;;;5087921;28;20023;-78
2024/01/10 04:10:29;;;;;;;6.82;3.05;;;-2.10;97.80;;;;;;5087983;28;20052;-78
2024/01/10 04:12:55;;;;;;;9.82;3.65;;;-2.20;97.80;;;;;;5087877;28;20054;-78
2024/01/10 04:15:21;;;;;;;5.10;2.80;;;-2.20;97.80;;;;;;5087268;28;20107;-78
2024/01/10 04:17:47;;;;;;;6.18;2.88;;;-2.20;97.90;;;;;;5087938;28;20037;-78
2024/01/10 04:20:13;;;;;;;7.80;2.70;;;-2.20;97.90;;;;;;5069162;28;20078;-78
2024/01/10 04:22:38;;;;;;;6.75;3.15;;;-2.20;97.90;;;;;;5069348;28;20028;-77
2024/01/10 04:25:06;;;;;;;7.63;3.38;;;-2.20;98.00;;;;;;5087325;28;20111;-78
2024/01/10 04:27:32;;;;;;;6.13;3.22;;;-2.20;98.00;;;;;;5087799;28;20077;-78
2024/01/10 04:29:58;;;;;;;6.85;2.80;;;-2.20;97.90;;;;;;5068776;28;20452;-78
2024/01/10 04:32:23;;;;;;;8.13;3.22;;;-2.30;98.00;;;;;;5087796;28;20385;-78
2024/01/10 04:34:49;;;;;;;6.85;3.03;;;-2.30;97.90;;;;;;5087027;28;20017;-78
2024/01/10 04:37:15;;;;;;;7.18;3.50;;;-2.30;98.00;;;;;;5069226;28;20028;-79
2024/01/10 04:39:42;;;;;;;6.50;3.28;;;-2.30;98.00;;;;;;5086963;28;20012;-78
2024/01/10 04:42:10;;;;;;;7.78;3.30;;;-2.30;98.10;;;;;;5087551;28;20020;-78
2024/01/10 04:44:36;;;;;;;5.78;2.78;;;-2.30;98.10;;;;;;5068664;28;20024;-78
2024/01/10 04:47:01;;;;;;;9.68;2.88;;;-2.30;98.10;;;;;;5069374;28;20463;-78
2024/01/10 04:49:27;;;;;;;5.38;2.63;;;-2.30;98.10;;;;;;5087006;28;20035;-78
2024/01/10 04:51:53;;;;;;;5.80;3.17;;;-2.30;98.10;;;;;;5087208;28;20198;-78
2024/01/10 04:54:18;;;;;;;6.85;2.80;;;-2.30;98.40;;;;;;5086899;28;20024;-78
2024/01/10 04:56:44;;;;;;;5.55;2.47;;;-2.40;98.10;;;;;;5086517;28;20480;-78
2024/01/10 04:59:10;;;;;;;7.35;3.00;;;-2.40;98.10;;;;;;5086828;28;20034;-78
2024/01/10 05:01:36;;;;;;;8.70;3.20;;;-2.40;98.20;;;;;;5069331;28;20059;-78
2024/01/10 05:04:02;;;;;;;6.85;2.90;;;-2.40;98.20;;;;;;5086779;28;20523;-78
2024/01/10 05:06:28;;;;;;;7.13;3.30;;;-2.40;98.20;;;;;;5086896;28;20028;-79
2024/01/10 05:08:57;;;;;;;8.07;3.33;;;-2.40;98.20;;;;;;5086540;28;20031;-79
2024/01/10 05:11:24;;;;;;;8.27;3.40;;;-2.40;98.20;;;;;;5086800;28;20027;-79
2024/01/10 05:13:50;;;;;;;6.85;2.90;;;-2.50;98.20;;;;;;5086664;28;20024;-79
2024/01/10 05:16:17;;;;;;;8.85;3.50;;;-2.50;98.30;;;;;;5087133;28;20020;-78
2024/01/10 05:18:43;;;;;;;7.07;3.33;;;-2.50;98.30;;;;;;5086779;28;20599;-78
2024/01/10 05:21:09;;;;;;;7.22;3.38;;;-2.50;98.30;;;;;;5087217;28;20031;-78
2024/01/10 05:23:36;;;;;;;6.95;3.03;;;-2.50;98.40;;;;;;5069956;28;20028;-79
2024/01/10 05:26:02;;;;;;;6.05;2.75;;;-2.60;98.30;;;;;;5071209;28;20478;-79
2024/01/10 05:28:28;;;;;;;7.05;3.35;;;-2.50;98.40;;;;;;5070568;28;20031;-79
2024/01/10 05:30:54;;;;;;;9.15;3.72;;;-2.60;98.30;;;;;;5090187;28;20020;-78
2024/01/10 05:33:20;;;;;;;7.10;3.25;;;-2.60;98.50;;;;;;5088974;28;20040;-78
2024/01/10 05:35:45;;;;;;;7.68;3.20;;;-2.60;98.50;;;;;;5087271;28;20078;-79
2024/01/10 05:38:11;;;;;;;7.95;3.67;;;-2.60;98.50;;;;;;5087236;28;20465;-78
2024/01/10 05:40:37;;;;;;;8.77;3.20;;;-2.60;98.50;;;;;;5068234;28;20035;-78
2024/01/10 05:43:02;;;;;;;6.40;3.40;;;-2.60;98.60;;;;;;5068408;28;20038;-79
2024/01/10 05:45:28;;;;;;;7.20;3.45;;;-2.70;98.60;;;;;;5086973;28;20024;-78
2024/01/10 05:47:54;;;;;;;6.82;3.30;;;-2.60;98.60;;;;;;5086662;28;20461;-79
2024/01/10 05:50:20;;;;;;;6.82;2.85;;;-2.70;98.60;;;;;;5086346;28;20035;-78
2024/01/10 05:52:47;;;;;;;8.25;3.78;;;-2.70;98.70;;;;;;5068099;28;20047;-79
2024/01/10 05:55:12;;;;;;;8.27;3.40;;;-2.70;98.70;;;;;;5067852;28;20020;-79
2024/01/10 05:57:38;;;;;;;7.65;3.60;;;-2.70;98.80;;;;;;5086927;28;20484;-78
2024/01/10 06:00:09;;;;;;;7.82;3.65;;;-2.70;98.80;;;;;;5072141;28;20028;-78
2024/01/10 06:02:39;;;;;;;8.02;3.22;;;-2.70;98.80;;;;;;5086645;28;20028;-79
2024/01/10 06:05:11;;;;;;;7.88;3.60;;;-2.70;98.90;;;;;;5067694;28;20082;-78
2024/01/10 06:07:37;;;;;;;6.95;3.20;;;-2.70;98.90;;;;;;5070974;28;20043;-79
2024/01/10 06:10:04;;;;;;;6.78;3.25;;;-2.70;99.00;;;;;;5071642;28;20050;-78
2024/01/10 06:12:30;;;;;;;9.45;3.83;;;-2.70;99.00;;;;;;5090004;28;20031;-79
2024/01/10 06:14:56;;;;;;;7.70;3.75;;;-2.60;99.00;;;;;;5071651;28;20016;-79
2024/01/10 06:17:21;;;;;;;7.22;3.30;;;-2.70;99.10;;;;;;5071723;28;20042;-79
2024/01/10 06:19:47;;;;;;;9.25;3.90;;;-2.70;99.10;;;;;;5076180;28;20089;-78
2024/01/10 06:22:13;;;;;;;7.13;3.42;;;-2.70;99.10;;;;;;5090124;28;20024;-78
2024/01/10 06:24:40;;;;;;;5.70;3.10;;;-2.70;99.10;;;;;;5089729;28;20051;-79
2024/01/10 06:27:06;;;;;;;7.35;3.40;;;-2.70;99.20;;;;;;5089851;28;20065;-79
2024/01/10 06:29:32;;;;;;;8.23;4.05;;;-2.60;99.20;;;;;;5071578;28;20028;-78
2024/01/10 06:32:00;;;;;;;8.77;3.92;;;-2.70;99.20;;;;;;5089663;28;20596;-79
2024/01/10 06:34:26;;;;;;;7.13;3.33;;;-2.70;99.20;;;;;;5089698;28;20024;-78
2024/01/10 06:36:52;;;;;;;8.40;3.35;;;-2.70;99.30;;;;;;5071579;28;20064;-79
2024/01/10 06:39:19;;;;;;;9.38;3.60;;;-2.70;99.30;;;;;;5071539;28;20047;-78
2024/01/10 06:41:47;;;;;;;7.68;3.58;;;-2.70;99.30;;;;;;5090710;28;20019;-79
2024/01/10 06:44:13;;;;;;;9.48;4.18;;;-2.80;99.30;;;;;;5090230;28;20062;-78
2024/01/10 06:46:38;;;;;;;9.63;4.30;;;-2.70;99.40;;;;;;5090334;28;20496;-78
2024/01/10 06:49:04;;;;;;;8.45;3.70;;;-2.80;99.50;;;;;;5071198;28;20024;-78
2024/01/10 06:51:31;;;;;;;8.38;3.92;;;-2.80;99.40;;;;;;5071308;28;20051;-78
2024/01/10 06:54:03;;;;;;;7.85;4.07;;;-2.80;99.40;;;;;;5070675;28;20063;-78
2024/01/10 06:56:32;;;;;;;11.43;4.28;;;-2.80;99.40;;;;;;5070839;28;20503;-78
2024/01/10 06:58:59;;;;;;;8.50;3.50;;;-2.80;99.40;;;;;;5089212;28;20511;-78
2024/01/10 07:01:24;;;;;;;8.85;3.95;;;-2.80;99.40;;;;;;5089471;28;20023;-79
2024/01/10 07:03:51;;;;;;;7.25;3.53;;;-2.80;99.40;;;;;;5088697;28;20082;-78
2024/01/10 07:06:18;;;;;;;10.52;4.72;;;-2.80;99.50;;;;;;5089231;28;20548;-79
2024/01/10 07:08:47;;;;;;;9.07;4.13;;;-2.80;99.40;;;;;;5090733;28;20035;-77
2024/01/10 07:11:12;;;;;;;10.40;4.65;;;-2.80;99.40;;;;;;5094561;28;20031;-78
2024/01/10 07:13:38;;;;;;;9.35;4.43;;;-2.80;99.40;;;;;;5070501;28;20035;-78
2024/01/10 07:16:04;;;;;;;8.75;4.18;;;-2.90;99.40;;;;;;5070442;28;20031;-78
2024/01/10 07:18:32;;;;;;;10.35;4.68;;;-2.80;99.50;;;;;;5088584;28;20098;-83
2024/01/10 07:20:59;;;;;;;9.45;4.88;;;-2.80;99.50;;;;;;5081421;28;20040;-78
2024/01/10 07:23:25;;;;;;;9.88;4.05;;;-2.80;99.50;;;;;;5088549;28;20225;-78
2024/01/10 07:25:50;;;;;;;7.82;4.05;;;-2.80;99.50;;;;;;5069531;28;20467;-77
2024/01/10 07:28:17;;;;;;;10.63;5.07;;;-2.80;99.60;;;;;;5070258;28;20626;-79
2024/01/10 07:30:44;;;;;;;11.30;5.82;;;-2.80;99.60;;;;;;5068787;28;20165;-78
2024/01/10 07:33:10;;;;;;;10.73;4.53;;;-2.80;99.60;;;;;;5087969;28;20036;-78
2024/01/10 07:35:37;;;;;;;10.68;4.95;;;-2.80;99.60;;;;;;5087915;28;20020;-79
2024/01/10 07:38:03;;;;;;;13.32;5.85;;;-2.80;99.60;;;;;;5067802;28;20016;-78
2024/01/10 07:40:29;;;;;;;10.60;5.05;;;-2.80;99.70;;;;;;5083444;28;20395;-78
2024/01/10 07:42:56;;;;;;;12.05;4.57;;;-2.90;99.70;;;;;;5084772;28;20103;-77
2024/01/10 07:45:22;;;;;;;11.50;4.97;;;-2.80;99.70;;;;;;5082798;28;20039;-77
2024/01/10 07:47:48;;;;;;;12.07;5.00;;;-2.80;99.70;;;;;;5064697;28;20055;-78
2024/01/10 07:50:14;;;;;;;10.68;4.85;;;-2.80;99.80;;;;;;5086652;28;20120;-78
2024/01/10 07:52:40;;;;;;;10.02;4.75;;;-2.80;99.80;;;;;;5083358;28;20036;-78
2024/01/10 07:55:06;;;;;;;11.73;5.40;;;-2.90;99.80;;;;;;5086136;28;20035;-79
2024/01/10 07:57:33;;;;;;;11.85;5.55;;;-2.90;99.80;;;;;;5073081;28;20460;-78
2024/01/10 07:59:59;;;;;;;11.95;5.25;;;-2.90;99.80;;;;;;5081678;28;20051;-78
2024/01/10 08:02:25;;;;;;;11.48;5.30;;;-2.90;99.90;;;;;;5080979;28;20626;-79
2024/01/10 08:04:52;;;;;;;11.25;5.47;;;-2.90;99.90;;;;;;5067182;28;20028;-79
2024/01/10 08:07:19;;;;;;;11.52;5.35;;;-2.90;99.90;;;;;;5068537;28;20306;-79
2024/01/10 08:09:45;;;;;;;10.38;4.97;;;-2.90;99.90;;;;;;5067260;28;20111;-79
2024/01/10 08:12:11;;;;;;;11.45;5.55;;;-2.90;99.90;;;;;;5086635;28;20107;-78
2024/01/10 08:14:37;;;;;;;13.48;5.82;;;-2.90;99.90;;;;;;5085844;28;20020;-79
2024/01/10 08:17:03;;;;;;;11.10;5.53;;;-2.90;99.90;;;;;;5067950;28;20351;-79
2024/01/10 08:19:29;;;;;;;10.50;5.00;;;-2.90;99.90;;;;;;5085776;28;20027;-79
2024/01/10 08:21:56;;;;;;;12.05;6.00;;;-2.90;99.90;;;;;;5085929;28;20405;-77
2024/01/10 08:24:22;;;;;;;12.05;5.70;;;-2.90;99.90;;;;;;5075081;28;20055;-77
2024/01/10 08:26:51;;;;;;;12.13;5.45;;;-2.90;99.90;;;;;;5066039;28;20103;-78
2024/01/10 08:29:18;;;;;;;14.65;6.60;;;-2.80;99.90;;;;;;5085206;28;20035;-76
2024/01/10 08:31:45;;;;;;;10.77;5.40;;;-2.90;99.90;;;;;;5079751;28;20071;-77
2024/01/10 08:34:11;;;;;;;13.15;6.28;;;-2.80;99.90;;;;;;5082365;28;20036;-78
2024/01/10 08:36:37;;;;;;;15.27;6.95;;;-2.80;99.90;;;;;;5085657;28;20028;-79
2024/01/10 08:39:03;;;;;;;14.32;5.43;;;-2.80;99.90;;;;;;5085269;28;20038;-76
2024/01/10 08:41:30;;;;;;;11.75;5.43;;;-2.80;99.90;;;;;;5064209;28;20485;-77
2024/01/10 08:43:55;;;;;;;10.90;5.25;;;-2.80;99.90;;;;;;5083933;28;20026;-78
2024/01/10 08:46:21;;;;;;;10.00;5.28;;;-2.80;99.90;;;;;;5085605;28;20031;-78
2024/01/10 08:48:47;;;;;;;11.20;5.22;;;-2.70;99.90;;;;;;5085480;28;20089;-77
2024/01/10 08:51:16;;;;;;;12.80;6.10;;;-2.70;99.90;;;;;;5066602;28;20016;-77
2024/01/10 08:53:42;;;;;;;13.10;5.85;;;-2.70;99.90;;;;;;5066236;28;20081;-77
2024/01/10 08:56:08;;;;;;;11.68;6.00;;;-2.70;99.90;;;;;;5080478;28;20671;-77
2024/01/10 08:58:34;;;;;;;12.40;5.47;;;-2.60;99.90;;;;;;5081123;28;20103;-77
2024/01/10 09:00:59;;;;;;;10.13;5.28;;;-2.60;99.90;;;;;;5069251;28;20279;-78
2024/01/10 09:03:25;;;;;;;12.65;6.00;;;-2.50;99.90;;;;;;5085540;28;20054;-77
2024/01/10 09:05:51;;;;;;;10.40;5.57;;;-2.50;99.90;;;;;;5084576;28;20051;-78
2024/01/10 09:08:17;;;;;;;12.70;5.57;;;-2.50;99.90;;;;;;5085498;28;20093;-77
2024/01/10 09:10:42;;;;;;;12.88;6.10;;;-2.40;99.90;;;;;;5084553;28;20540;-78
2024/01/10 09:13:09;;;;;;;11.90;5.25;;;-2.40;99.90;;;;;;5085128;28;20028;-77
2024/01/10 09:15:34;;;;;;;14.07;6.13;;;-2.30;99.90;;;;;;5083599;28;20016;-77
2024/01/10 09:18:00;;;;;;;12.38;6.30;;;-2.30;99.90;;;;;;5062581;28;20028;-78
2024/01/10 09:20:26;;;;;;;13.23;6.05;;;-2.20;99.90;;;;;;5078642;28;20042;-77
2024/01/10 09:22:51;;;;;;;12.70;6.45;;;-2.20;99.90;;;;;;5083716;28;20408;-78
2024/01/10 09:25:17;;;;;;;13.13;5.88;;;-2.20;99.90;;;;;;5064560;28;20032;-78
2024/01/10 09:27:44;;;;;;;12.38;5.63;;;-2.10;99.90;;;;;;5064983;28;20028;-78
2024/01/10 09:30:11;;;;;;;15.07;6.10;;;-2.10;99.90;;;;;;5064864;28;20058;-78
2024/01/10 09:32:37;;;;;;;12.32;6.20;;;-2.00;99.90;;;;;;5085058;28;20441;-78
2024/01/10 09:35:03;;;;;;;12.43;6.43;;;-1.90;99.90;;;;;;5084640;28;20020;-77
2024/01/10 09:37:29;;;;;;;12.95;6.18;;;-1.90;99.90;;;;;;5067250;28;20032;-78
2024/01/10 09:39:55;;;;;;;13.00;5.80;;;-1.80;99.90;;;;;;5066296;28;20077;-78
2024/01/10 09:42:25;;;;;;;11.45;5.70;;;-1.80;99.80;;;;;;5069981;28;20023;-78
2024/01/10 09:44:51;;;;;;;13.38;6.57;;;-1.80;99.60;;;;;;5088201;28;20087;-77
2024/01/10 09:47:19;;;;;;;13.70;6.70;;;-1.70;99.60;;;;;;5089019;28;20107;-78
2024/01/10 09:49:46;;;;;;;13.25;5.95;;;-1.70;99.50;;;;;;5087886;28;20016;-78
2024/01/10 09:52:23;;;;;;;14.88;6.90;;;-1.60;99.60;;;;;;5070983;28;20044;-78
2024/01/10 09:54:54;;;;;;;14.30;6.20;;;-1.50;99.60;;;;;;5087689;28;20027;-78
2024/01/10 09:57:20;;;;;;;12.68;5.45;;;-1.50;99.40;;;;;;5071466;28;20508;-78
2024/01/10 09:59:47;;;;;;;13.65;6.35;;;-1.40;99.30;;;;;;5089048;28;20389;-78
2024/01/10 10:02:16;;;;;;;13.13;6.00;;;-1.40;99.30;;;;;;5089662;28;20039;-79
2024/01/10 10:05:02;;;;;;;12.52;6.13;;;-1.40;99.40;;;;;;5071121;28;20134;-78
2024/01/10 10:07:28;;;;;;;10.05;5.55;;;-1.30;99.40;;;;;;5089297;28;20035;-78
2024/01/10 10:09:56;;;;;;;16.40;6.43;;;-1.20;99.20;;;;;;5092282;28;20592;-78
2024/01/10 10:12:40;;;;;;;13.57;6.28;;;-1.20;99.30;;;;;;5088512;28;20027;-78
2024/01/10 10:15:14;;;;;;;11.75;6.10;;;-1.10;99.20;;;;;;5087906;28;20154;-78
2024/01/10 10:17:46;;;;;;;12.32;6.30;;;-1.00;99.00;;;;;;5082151;28;20073;-78
2024/01/10 10:20:25;;;;;;;16.90;7.32;;;-1.00;98.90;;;;;;5088046;28;20024;-78
2024/01/10 10:23:07;;;;;;;14.77;7.03;;;-1.00;98.90;;;;;;5071067;28;20152;-78
2024/01/10 10:25:33;;;;;;;16.55;6.88;;;-0.90;98.80;;;;;;5065452;28;20446;-78
2024/01/10 10:28:00;;;;;;;14.55;6.90;;;-0.90;98.40;;;;;;5088455;28;20020;-78
2024/01/10 10:30:26;;;;;;;13.90;6.97;;;-0.90;98.50;;;;;;5087963;28;20366;-78
2024/01/10 10:32:53;;;;;;;12.27;5.82;;;-0.80;98.50;;;;;;5074185;28;20251;-78
2024/01/10 10:35:22;;;;;;;10.52;5.25;;;-0.80;98.80;;;;;;5087836;28;20050;-78
2024/01/10 10:37:52;;;;;;;10.98;5.88;;;-0.70;98.50;;;;;;5069600;28;20024;-78
2024/01/10 10:40:19;;;;;;;15.10;6.90;;;-0.70;98.40;;;;;;5087662;28;20389;-78
2024/01/10 10:42:54;;;;;;;12.32;6.22;;;-0.60;98.40;;;;;;5069700;28;20024;-78
2024/01/10 10:45:25;;;;;;;13.75;7.10;;;-0.60;98.30;;;;;;5069558;28;20047;-79
2024/01/10 10:47:57;;;;;;;12.93;6.18;;;-0.60;98.00;;;;;;5087738;28;20024;-78
2024/01/10 10:50:23;;;;;;;14.57;6.45;;;-0.50;97.90;;;;;;5087760;28;20040;-78
2024/01/10 10:52:50;;;;;;;12.38;6.85;;;-0.50;97.90;;;;;;5086971;28;20054;-79
2024/01/10 10:55:18;;;;;;;11.82;5.72;;;-0.50;97.70;;;;;;5087405;28;20531;-78
2024/01/10 10:57:46;;;;;;;13.35;6.78;;;-0.40;97.80;;;;;;5087764;28;20325;-78
2024/01/10 11:00:15;;;;;;;11.52;6.32;;;-0.40;97.70;;;;;;5086665;28;20028;-78
2024/01/10 11:02:41;;;;;;;13.48;6.78;;;-0.30;97.80;;;;;;5088105;28;20024;-78
2024/01/10 11:05:09;;;;;;;13.45;7.15;;;-0.30;97.40;;;;;;5087224;28;20085;-78
2024/01/10 11:07:39;;;;;;;15.00;7.13;;;-0.20;97.40;;;;;;5086618;28;20020;-78
2024/01/10 11:10:20;;;;;;;13.23;7.30;;;-0.20;97.30;;;;;;5066096;28;20028;-79
2024/01/10 11:13:28;;;;;;;13.85;6.47;;;-0.10;97.30;;;;;;5079311;28;20031;-79
2024/01/10 11:16:03;;;;;;;15.05;6.50;;;0.00;97.20;;;;;;5073184;28;20020;-79
2024/01/10 11:19:00;;;;;;;13.23;6.55;;;0.00;97.00;;;;;;5076750;28;20029;-79
2024/01/10 11:22:07;;;;;;;13.80;6.45;;;0.10;97.40;;;;;;5078706;28;20028;-78
2024/01/10 11:24:33;;;;;;;13.63;6.72;;;0.30;97.30;;;;;;5082251;28;20079;-77
2024/01/10 11:27:18;;;;;;;17.83;7.20;;;0.40;97.20;;;;;;5086899;28;20147;-78
2024/01/10 11:29:47;;;;;;;13.82;7.30;;;0.60;97.00;;;;;;5056691;28;20110;-78
2024/01/10 11:32:16;;;;;;;13.50;6.88;;;0.60;96.70;;;;;;5087369;28;20144;-78
2024/01/10 11:35:11;;;;;;;12.77;7.13;;;0.70;96.60;;;;;;5086201;28;20012;-78
2024/01/10 11:37:43;;;;;;;16.23;7.03;;;0.90;96.90;;;;;;5086728;28;20020;-77
2024/01/10 11:40:09;;;;;;;13.38;6.78;;;1.00;96.80;;;;;;5068151;28;20139;-77
2024/01/10 11:42:45;;;;;;;15.30;7.32;;;1.20;96.80;;;;;;5087032;28;20107;-77
2024/01/10 11:45:30;;;;;;;12.90;6.50;;;1.30;96.70;;;;;;5068220;28;20099;-77
2024/01/10 11:47:59;;;;;;;12.27;6.47;;;1.40;96.70;;;;;;5086968;28;20032;-77
2024/01/10 11:50:26;;;;;;;12.38;5.88;;;1.60;96.80;;;;;;5090606;28;20012;-77
2024/01/10 11:52:54;;;;;;;13.85;6.60;;;1.70;97.00;;;;;;5089467;28;20071;-77
2024/01/10 11:55:47;;;;;;;14.68;6.95;;;1.70;96.40;;;;;;5083754;28;20477;-77
2024/01/10 11:58:13;;;;;;;13.70;6.80;;;1.80;96.40;;;;;;5066955;28;20032;-78
2024/01/10 12:00:40;;;;;;;12.40;6.72;;;1.90;96.10;;;;;;5086399;28;20107;-78
2024/01/10 12:03:07;;;;;;;13.25;6.68;;;1.80;96.20;;;;;;5087532;28;20497;-83
2024/01/10 12:05:38;;;;;;;12.98;6.18;;;1.80;96.20;;;;;;5066552;28;20497;-79
2024/01/10 12:08:09;;;;;;;13.68;7.03;;;1.90;96.10;;;;;;5067099;28;20172;-82
2024/01/10 12:10:37;;;;;;;11.50;6.50;;;1.90;96.20;;;;;;5082209;28;20084;-79
2024/01/10 12:13:03;;;;;;;13.57;6.38;;;2.00;96.10;;;;;;5085702;28;20024;-81
2024/01/10 12:15:29;;;;;;;14.63;7.53;;;2.10;96.40;;;;;;5071967;28;20028;-81
2024/01/10 12:17:55;;;;;;;12.10;6.15;;;2.20;96.30;;;;;;5072534;28;20021;-82
2024/01/10 12:20:21;;;;;;;13.50;6.90;;;2.40;96.30;;;;;;5079982;28;20481;-78
2024/01/10 12:22:47;;;;;;;14.25;7.53;;;2.40;96.00;;;;;;5079800;28;20546;-78
2024/01/10 12:25:14;;;;;;;14.30;6.75;;;2.50;95.90;;;;;;5066982;28;20621;-78
2024/01/10 12:27:40;;;;;;;13.32;7.22;;;2.50;95.70;;;;;;5085028;28;20065;-77
2024/01/10 12:30:06;;;;;;;14.75;6.95;;;2.50;95.70;;;;;;5063007;28;20196;-81
2024/01/10 12:32:32;;;;;;;13.23;7.15;;;2.50;95.70;;;;;;5085829;28;20024;-80
2024/01/10 12:35:01;;;;;;;14.80;7.15;;;2.50;95.50;;;;;;5085013;28;20024;-80
2024/01/10 12:37:27;;;;;;;12.48;7.10;;;2.50;95.60;;;;;;5084714;28;20034;-78
2024/01/10 12:39:53;;;;;;;17.23;7.45;;;2.50;95.50;;;;;;5085016;28;20405;-79
2024/01/10 12:42:19;;;;;;;14.68;6.50;;;2.60;95.60;;;;;;5066082;28;20016;-79
2024/01/10 12:44:46;;;;;;;13.15;7.15;;;2.60;95.50;;;;;;5083759;28;20433;-79